sensor_id;sensor_type;location;lat;lon;timestamp;P1;durP1;ratioP1;P2;durP2;ratioP2
21326;SDS011;10822;51.532;6.770;2023-05-20T00:00:12;2.92;;;1.50;;
21326;SDS011;10822;51.532;6.770;2023-05-20T00:02:38;2.80;;;1.40;;
21326;SDS011;10822;51.532;6.770;2023-05-20T00:05:04;2.75;;;1.42;;
21326;SDS011;10822;51.532;6.770;2023-05-20T00:07:30;5.65;;;1.42;;
21326;SDS011;10822;51.532;6.770;2023-05-20T00:09:56;3.78;;;1.80;;
21326;SDS011;10822;51.532;6.770;2023-05-20T00:12:22;2.80;;;1.42;;
21326;SDS011;10822;51.532;6.770;2023-05-20T00:14:48;7.65;;;2.25;;
21326;SDS011;10822;51.532;6.770;2023-05-20T00:17:14;3.13;;;1.58;;
21326;SDS011;10822;51.532;6.770;2023-05-20T00:19:41;4.22;;;1.70;;
21326;SDS011;10822;51.532;6.770;2023-05-20T00:22:07;3.13;;;2.03;;
21326;SDS011;10822;51.532;6.770;2023-05-20T00:24:33;3.70;;;1.60;;
21326;SDS011;10822;51.532;6.770;2023-05-20T00:26:59;2.72;;;1.60;;
21326;SDS011;10822;51.532;6.770;2023-05-20T00:29:26;3.47;;;1.83;;
21326;SDS011;10822;51.532;6.770;2023-05-20T00:31:52;3.08;;;1.65;;
21326;SDS011;10822;51.532;6.770;2023-05-20T00:34:19;2.97;;;1.60;;
21326;SDS011;10822;51.532;6.770;2023-05-20T00:36:45;4.13;;;2.50;;
21326;SDS011;10822;51.532;6.770;2023-05-20T00:39:11;3.65;;;2.45;;
21326;SDS011;10822;51.532;6.770;2023-05-20T00:41:37;7.32;;;3.83;;
21326;SDS011;10822;51.532;6.770;2023-05-20T00:44:03;2.75;;;1.75;;
21326;SDS011;10822;51.532;6.770;2023-05-20T00:46:29;2.97;;;1.73;;
21326;SDS011;10822;51.532;6.770;2023-05-20T00:48:55;3.17;;;1.60;;
21326;SDS011;10822;51.532;6.770;2023-05-20T00:51:22;3.97;;;1.60;;
21326;SDS011;10822;51.532;6.770;2023-05-20T00:53:48;3.20;;;1.60;;
21326;SDS011;10822;51.532;6.770;2023-05-20T00:56:15;3.85;;;1.83;;
21326;SDS011;10822;51.532;6.770;2023-05-20T00:58:42;3.10;;;1.50;;
21326;SDS011;10822;51.532;6.770;2023-05-20T01:01:08;2.67;;;1.77;;
21326;SDS011;10822;51.532;6.770;2023-05-20T01:03:34;2.67;;;1.70;;
21326;SDS011;10822;51.532;6.770;2023-05-20T01:06:01;2.85;;;1.90;;
21326;SDS011;10822;51.532;6.770;2023-05-20T01:08:27;4.53;;;2.00;;
21326;SDS011;10822;51.532;6.770;2023-05-20T01:11:07;2.63;;;1.80;;
21326;SDS011;10822;51.532;6.770;2023-05-20T01:13:38;3.35;;;1.80;;
21326;SDS011;10822;51.532;6.770;2023-05-20T01:16:06;2.42;;;1.60;;
21326;SDS011;10822;51.532;6.770;2023-05-20T01:18:33;3.60;;;1.80;;
21326;SDS011;10822;51.532;6.770;2023-05-20T01:21:00;2.25;;;1.50;;
21326;SDS011;10822;51.532;6.770;2023-05-20T01:23:36;3.80;;;1.83;;
21326;SDS011;10822;51.532;6.770;2023-05-20T01:26:04;4.07;;;2.03;;
21326;SDS011;10822;51.532;6.770;2023-05-20T01:28:30;5.20;;;1.75;;
21326;SDS011;10822;51.532;6.770;2023-05-20T01:30:56;2.40;;;1.60;;
21326;SDS011;10822;51.532;6.770;2023-05-20T01:33:24;2.97;;;1.92;;
21326;SDS011;10822;51.532;6.770;2023-05-20T01:35:52;2.70;;;1.60;;
21326;SDS011;10822;51.532;6.770;2023-05-20T01:38:18;1.85;;;1.60;;
21326;SDS011;10822;51.532;6.770;2023-05-20T01:40:44;4.78;;;2.20;;
21326;SDS011;10822;51.532;6.770;2023-05-20T01:43:11;3.20;;;1.90;;
21326;SDS011;10822;51.532;6.770;2023-05-20T01:45:39;3.47;;;1.77;;
21326;SDS011;10822;51.532;6.770;2023-05-20T01:48:05;2.80;;;1.50;;
21326;SDS011;10822;51.532;6.770;2023-05-20T01:50:31;3.65;;;1.63;;
21326;SDS011;10822;51.532;6.770;2023-05-20T01:52:57;3.40;;;1.50;;
21326;SDS011;10822;51.532;6.770;2023-05-20T01:55:23;6.25;;;2.17;;
21326;SDS011;10822;51.532;6.770;2023-05-20T01:57:49;3.13;;;1.80;;
21326;SDS011;10822;51.532;6.770;2023-05-20T02:00:15;4.28;;;2.20;;
21326;SDS011;10822;51.532;6.770;2023-05-20T02:02:41;2.30;;;1.80;;
21326;SDS011;10822;51.532;6.770;2023-05-20T02:05:07;2.85;;;1.73;;
21326;SDS011;10822;51.532;6.770;2023-05-20T02:07:33;3.33;;;1.70;;
21326;SDS011;10822;51.532;6.770;2023-05-20T02:09:59;4.32;;;1.80;;
21326;SDS011;10822;51.532;6.770;2023-05-20T02:12:25;2.65;;;1.98;;
21326;SDS011;10822;51.532;6.770;2023-05-20T02:24:02;6.13;;;2.03;;
21326;SDS011;10822;51.532;6.770;2023-05-20T02:26:29;2.95;;;1.88;;
21326;SDS011;10822;51.532;6.770;2023-05-20T02:28:55;4.65;;;1.95;;
21326;SDS011;10822;51.532;6.770;2023-05-20T02:31:20;2.95;;;1.83;;
21326;SDS011;10822;51.532;6.770;2023-05-20T02:33:46;4.43;;;2.00;;
21326;SDS011;10822;51.532;6.770;2023-05-20T02:36:12;5.40;;;1.73;;
21326;SDS011;10822;51.532;6.770;2023-05-20T02:38:39;3.05;;;1.65;;
21326;SDS011;10822;51.532;6.770;2023-05-20T02:41:05;3.25;;;2.00;;
21326;SDS011;10822;51.532;6.770;2023-05-20T02:43:31;5.00;;;2.00;;
21326;SDS011;10822;51.532;6.770;2023-05-20T02:45:57;2.80;;;1.83;;
21326;SDS011;10822;51.532;6.770;2023-05-20T02:48:23;4.20;;;2.05;;
21326;SDS011;10822;51.532;6.770;2023-05-20T02:50:49;2.53;;;1.58;;
21326;SDS011;10822;51.532;6.770;2023-05-20T02:53:15;4.13;;;2.20;;
21326;SDS011;10822;51.532;6.770;2023-05-20T02:55:41;3.40;;;1.80;;
21326;SDS011;10822;51.532;6.770;2023-05-20T02:58:08;4.00;;;1.98;;
21326;SDS011;10822;51.532;6.770;2023-05-20T03:00:34;3.22;;;1.73;;
21326;SDS011;10822;51.532;6.770;2023-05-20T03:03:04;5.03;;;2.00;;
21326;SDS011;10822;51.532;6.770;2023-05-20T03:05:31;3.38;;;2.10;;
21326;SDS011;10822;51.532;6.770;2023-05-20T03:07:57;2.20;;;1.60;;
21326;SDS011;10822;51.532;6.770;2023-05-20T03:10:23;2.13;;;1.65;;
21326;SDS011;10822;51.532;6.770;2023-05-20T03:12:49;4.22;;;1.95;;
21326;SDS011;10822;51.532;6.770;2023-05-20T03:15:15;2.83;;;1.85;;
21326;SDS011;10822;51.532;6.770;2023-05-20T03:17:41;4.47;;;2.00;;
21326;SDS011;10822;51.532;6.770;2023-05-20T03:20:07;3.80;;;1.80;;
21326;SDS011;10822;51.532;6.770;2023-05-20T03:22:36;2.92;;;2.03;;
21326;SDS011;10822;51.532;6.770;2023-05-20T03:25:02;4.93;;;2.30;;
21326;SDS011;10822;51.532;6.770;2023-05-20T03:27:29;3.78;;;2.20;;
21326;SDS011;10822;51.532;6.770;2023-05-20T03:29:56;4.57;;;2.13;;
21326;SDS011;10822;51.532;6.770;2023-05-20T03:32:21;3.22;;;1.83;;
21326;SDS011;10822;51.532;6.770;2023-05-20T03:34:47;4.32;;;2.20;;
21326;SDS011;10822;51.532;6.770;2023-05-20T03:37:14;6.35;;;2.30;;
21326;SDS011;10822;51.532;6.770;2023-05-20T03:39:40;3.90;;;2.30;;
21326;SDS011;10822;51.532;6.770;2023-05-20T03:42:06;6.82;;;1.98;;
21326;SDS011;10822;51.532;6.770;2023-05-20T03:44:31;4.63;;;2.05;;
21326;SDS011;10822;51.532;6.770;2023-05-20T03:46:57;5.85;;;2.30;;
21326;SDS011;10822;51.532;6.770;2023-05-20T03:49:23;3.78;;;1.83;;
21326;SDS011;10822;51.532;6.770;2023-05-20T03:51:49;2.97;;;2.05;;
21326;SDS011;10822;51.532;6.770;2023-05-20T03:54:15;4.40;;;1.88;;
21326;SDS011;10822;51.532;6.770;2023-05-20T03:56:41;3.85;;;2.30;;
21326;SDS011;10822;51.532;6.770;2023-05-20T03:59:08;3.85;;;2.10;;
21326;SDS011;10822;51.532;6.770;2023-05-20T04:01:35;4.95;;;2.20;;
21326;SDS011;10822;51.532;6.770;2023-05-20T04:04:01;2.30;;;1.80;;
21326;SDS011;10822;51.532;6.770;2023-05-20T04:06:27;4.45;;;2.55;;
21326;SDS011;10822;51.532;6.770;2023-05-20T04:08:53;8.88;;;2.10;;
21326;SDS011;10822;51.532;6.770;2023-05-20T04:11:19;4.45;;;2.53;;
21326;SDS011;10822;51.532;6.770;2023-05-20T04:13:45;4.32;;;2.13;;
21326;SDS011;10822;51.532;6.770;2023-05-20T04:16:11;5.82;;;2.13;;
21326;SDS011;10822;51.532;6.770;2023-05-20T04:18:37;3.10;;;2.15;;
21326;SDS011;10822;51.532;6.770;2023-05-20T04:21:03;5.15;;;2.00;;
21326;SDS011;10822;51.532;6.770;2023-05-20T04:23:29;2.60;;;2.00;;
21326;SDS011;10822;51.532;6.770;2023-05-20T04:25:55;4.05;;;2.05;;
21326;SDS011;10822;51.532;6.770;2023-05-20T04:28:26;3.75;;;1.80;;
21326;SDS011;10822;51.532;6.770;2023-05-20T04:31:01;4.00;;;2.40;;
21326;SDS011;10822;51.532;6.770;2023-05-20T04:33:28;3.40;;;2.00;;
21326;SDS011;10822;51.532;6.770;2023-05-20T04:35:54;4.85;;;2.20;;
21326;SDS011;10822;51.532;6.770;2023-05-20T04:38:22;3.67;;;2.10;;
21326;SDS011;10822;51.532;6.770;2023-05-20T04:40:53;3.25;;;2.08;;
21326;SDS011;10822;51.532;6.770;2023-05-20T04:43:21;3.03;;;1.85;;
21326;SDS011;10822;51.532;6.770;2023-05-20T04:45:47;4.90;;;2.10;;
21326;SDS011;10822;51.532;6.770;2023-05-20T04:48:13;2.92;;;2.00;;
21326;SDS011;10822;51.532;6.770;2023-05-20T04:50:39;2.60;;;1.92;;
21326;SDS011;10822;51.532;6.770;2023-05-20T04:53:05;5.00;;;2.10;;
21326;SDS011;10822;51.532;6.770;2023-05-20T04:55:32;4.03;;;2.08;;
21326;SDS011;10822;51.532;6.770;2023-05-20T04:58:01;3.65;;;2.20;;
21326;SDS011;10822;51.532;6.770;2023-05-20T05:00:27;4.75;;;2.17;;
21326;SDS011;10822;51.532;6.770;2023-05-20T05:02:54;6.43;;;2.40;;
21326;SDS011;10822;51.532;6.770;2023-05-20T05:05:20;2.75;;;1.85;;
21326;SDS011;10822;51.532;6.770;2023-05-20T05:07:46;6.38;;;2.20;;
21326;SDS011;10822;51.532;6.770;2023-05-20T05:10:12;3.40;;;2.42;;
21326;SDS011;10822;51.532;6.770;2023-05-20T05:12:39;7.47;;;2.22;;
21326;SDS011;10822;51.532;6.770;2023-05-20T05:15:05;3.80;;;2.13;;
21326;SDS011;10822;51.532;6.770;2023-05-20T05:17:31;3.15;;;1.70;;
21326;SDS011;10822;51.532;6.770;2023-05-20T05:19:57;3.65;;;1.80;;
21326;SDS011;10822;51.532;6.770;2023-05-20T05:22:23;3.15;;;2.20;;
21326;SDS011;10822;51.532;6.770;2023-05-20T05:24:49;2.78;;;2.13;;
21326;SDS011;10822;51.532;6.770;2023-05-20T05:27:16;4.75;;;2.22;;
21326;SDS011;10822;51.532;6.770;2023-05-20T05:29:42;4.45;;;2.33;;
21326;SDS011;10822;51.532;6.770;2023-05-20T05:32:08;4.53;;;2.30;;
21326;SDS011;10822;51.532;6.770;2023-05-20T05:34:34;5.72;;;2.50;;
21326;SDS011;10822;51.532;6.770;2023-05-20T05:37:00;2.50;;;2.10;;
21326;SDS011;10822;51.532;6.770;2023-05-20T05:39:26;4.53;;;2.35;;
21326;SDS011;10822;51.532;6.770;2023-05-20T05:41:52;4.47;;;2.30;;
21326;SDS011;10822;51.532;6.770;2023-05-20T05:44:18;3.10;;;2.00;;
21326;SDS011;10822;51.532;6.770;2023-05-20T05:46:44;1.95;;;1.70;;
21326;SDS011;10822;51.532;6.770;2023-05-20T05:49:10;3.83;;;2.10;;
21326;SDS011;10822;51.532;6.770;2023-05-20T05:51:36;4.35;;;2.00;;
21326;SDS011;10822;51.532;6.770;2023-05-20T05:54:02;4.20;;;1.90;;
21326;SDS011;10822;51.532;6.770;2023-05-20T05:56:29;3.17;;;2.00;;
21326;SDS011;10822;51.532;6.770;2023-05-20T05:58:55;3.80;;;2.30;;
21326;SDS011;10822;51.532;6.770;2023-05-20T06:01:21;3.50;;;1.80;;
21326;SDS011;10822;51.532;6.770;2023-05-20T06:03:47;2.75;;;1.95;;
21326;SDS011;10822;51.532;6.770;2023-05-20T06:06:14;4.93;;;1.98;;
21326;SDS011;10822;51.532;6.770;2023-05-20T06:08:39;4.18;;;2.55;;
21326;SDS011;10822;51.532;6.770;2023-05-20T06:11:05;4.30;;;1.90;;
21326;SDS011;10822;51.532;6.770;2023-05-20T06:13:31;8.13;;;2.05;;
21326;SDS011;10822;51.532;6.770;2023-05-20T06:15:57;3.83;;;2.13;;
21326;SDS011;10822;51.532;6.770;2023-05-20T06:18:23;3.25;;;2.10;;
21326;SDS011;10822;51.532;6.770;2023-05-20T06:20:53;2.67;;;1.85;;
21326;SDS011;10822;51.532;6.770;2023-05-20T06:23:19;5.05;;;2.00;;
21326;SDS011;10822;51.532;6.770;2023-05-20T06:25:46;4.18;;;2.30;;
21326;SDS011;10822;51.532;6.770;2023-05-20T06:28:12;2.42;;;1.90;;
21326;SDS011;10822;51.532;6.770;2023-05-20T06:30:39;3.47;;;2.17;;
21326;SDS011;10822;51.532;6.770;2023-05-20T06:33:05;5.28;;;2.30;;
21326;SDS011;10822;51.532;6.770;2023-05-20T06:35:31;5.78;;;2.15;;
21326;SDS011;10822;51.532;6.770;2023-05-20T06:38:00;4.40;;;2.28;;
21326;SDS011;10822;51.532;6.770;2023-05-20T06:40:29;5.32;;;2.58;;
21326;SDS011;10822;51.532;6.770;2023-05-20T06:42:55;2.75;;;2.03;;
21326;SDS011;10822;51.532;6.770;2023-05-20T06:45:21;3.47;;;1.92;;
21326;SDS011;10822;51.532;6.770;2023-05-20T06:47:47;2.33;;;1.73;;
21326;SDS011;10822;51.532;6.770;2023-05-20T06:50:14;3.67;;;2.10;;
21326;SDS011;10822;51.532;6.770;2023-05-20T06:52:39;2.78;;;2.00;;
21326;SDS011;10822;51.532;6.770;2023-05-20T06:55:06;4.10;;;1.92;;
21326;SDS011;10822;51.532;6.770;2023-05-20T06:57:32;2.33;;;1.70;;
21326;SDS011;10822;51.532;6.770;2023-05-20T06:59:58;3.65;;;2.05;;
21326;SDS011;10822;51.532;6.770;2023-05-20T07:02:24;4.63;;;1.95;;
21326;SDS011;10822;51.532;6.770;2023-05-20T07:04:50;2.92;;;1.90;;
21326;SDS011;10822;51.532;6.770;2023-05-20T07:07:16;2.95;;;1.90;;
21326;SDS011;10822;51.532;6.770;2023-05-20T07:09:42;4.57;;;2.10;;
21326;SDS011;10822;51.532;6.770;2023-05-20T07:12:08;2.60;;;2.08;;
21326;SDS011;10822;51.532;6.770;2023-05-20T07:14:33;3.00;;;1.90;;
21326;SDS011;10822;51.532;6.770;2023-05-20T07:16:59;3.55;;;2.05;;
21326;SDS011;10822;51.532;6.770;2023-05-20T07:19:25;2.90;;;2.00;;
21326;SDS011;10822;51.532;6.770;2023-05-20T07:21:51;3.03;;;1.88;;
21326;SDS011;10822;51.532;6.770;2023-05-20T07:24:17;4.10;;;2.08;;
21326;SDS011;10822;51.532;6.770;2023-05-20T07:26:43;3.95;;;2.33;;
21326;SDS011;10822;51.532;6.770;2023-05-20T07:29:09;2.67;;;1.90;;
21326;SDS011;10822;51.532;6.770;2023-05-20T07:31:35;2.70;;;1.80;;
21326;SDS011;10822;51.532;6.770;2023-05-20T07:34:01;3.33;;;2.33;;
21326;SDS011;10822;51.532;6.770;2023-05-20T07:36:27;3.50;;;2.45;;
21326;SDS011;10822;51.532;6.770;2023-05-20T07:38:54;3.63;;;2.40;;
21326;SDS011;10822;51.532;6.770;2023-05-20T07:41:20;2.92;;;2.05;;
21326;SDS011;10822;51.532;6.770;2023-05-20T07:43:46;3.97;;;2.30;;
21326;SDS011;10822;51.532;6.770;2023-05-20T07:46:12;5.88;;;2.40;;
21326;SDS011;10822;51.532;6.770;2023-05-20T07:48:40;5.13;;;2.40;;
21326;SDS011;10822;51.532;6.770;2023-05-20T07:51:06;3.72;;;2.33;;
21326;SDS011;10822;51.532;6.770;2023-05-20T07:53:32;4.78;;;2.47;;
21326;SDS011;10822;51.532;6.770;2023-05-20T07:55:58;5.10;;;2.47;;
21326;SDS011;10822;51.532;6.770;2023-05-20T07:58:24;5.07;;;2.78;;
21326;SDS011;10822;51.532;6.770;2023-05-20T08:00:50;6.07;;;3.40;;
21326;SDS011;10822;51.532;6.770;2023-05-20T08:03:16;4.47;;;3.03;;
21326;SDS011;10822;51.532;6.770;2023-05-20T08:05:43;9.35;;;6.05;;
21326;SDS011;10822;51.532;6.770;2023-05-20T08:08:09;4.43;;;2.97;;
21326;SDS011;10822;51.532;6.770;2023-05-20T08:10:35;5.55;;;2.97;;
21326;SDS011;10822;51.532;6.770;2023-05-20T08:13:01;3.00;;;2.70;;
21326;SDS011;10822;51.532;6.770;2023-05-20T08:15:27;6.05;;;3.10;;
21326;SDS011;10822;51.532;6.770;2023-05-20T08:17:53;5.03;;;3.45;;
21326;SDS011;10822;51.532;6.770;2023-05-20T08:20:19;3.83;;;2.80;;
21326;SDS011;10822;51.532;6.770;2023-05-20T08:22:45;6.35;;;3.00;;
21326;SDS011;10822;51.532;6.770;2023-05-20T08:25:11;4.60;;;3.38;;
21326;SDS011;10822;51.532;6.770;2023-05-20T08:27:38;5.13;;;3.28;;
21326;SDS011;10822;51.532;6.770;2023-05-20T08:30:05;4.53;;;3.33;;
21326;SDS011;10822;51.532;6.770;2023-05-20T08:32:33;6.75;;;3.40;;
21326;SDS011;10822;51.532;6.770;2023-05-20T08:34:59;10.23;;;6.55;;
21326;SDS011;10822;51.532;6.770;2023-05-20T08:37:26;7.05;;;4.20;;
21326;SDS011;10822;51.532;6.770;2023-05-20T08:39:52;6.07;;;3.97;;
21326;SDS011;10822;51.532;6.770;2023-05-20T08:42:22;4.63;;;3.50;;
21326;SDS011;10822;51.532;6.770;2023-05-20T08:44:48;6.90;;;3.70;;
21326;SDS011;10822;51.532;6.770;2023-05-20T08:47:15;6.57;;;3.55;;
21326;SDS011;10822;51.532;6.770;2023-05-20T08:49:41;7.43;;;4.07;;
21326;SDS011;10822;51.532;6.770;2023-05-20T08:52:07;4.50;;;3.47;;
21326;SDS011;10822;51.532;6.770;2023-05-20T08:54:44;7.05;;;3.38;;
21326;SDS011;10822;51.532;6.770;2023-05-20T08:57:11;4.85;;;3.28;;
21326;SDS011;10822;51.532;6.770;2023-05-20T08:59:39;4.55;;;3.40;;
21326;SDS011;10822;51.532;6.770;2023-05-20T09:02:05;6.75;;;3.38;;
21326;SDS011;10822;51.532;6.770;2023-05-20T09:04:31;4.65;;;3.45;;
21326;SDS011;10822;51.532;6.770;2023-05-20T09:06:57;10.00;;;7.18;;
21326;SDS011;10822;51.532;6.770;2023-05-20T09:09:23;5.40;;;3.63;;
21326;SDS011;10822;51.532;6.770;2023-05-20T09:11:49;5.78;;;3.97;;
21326;SDS011;10822;51.532;6.770;2023-05-20T09:14:15;5.63;;;3.70;;
21326;SDS011;10822;51.532;6.770;2023-05-20T09:16:43;4.82;;;3.30;;
21326;SDS011;10822;51.532;6.770;2023-05-20T09:19:09;4.93;;;3.70;;
21326;SDS011;10822;51.532;6.770;2023-05-20T09:21:35;5.18;;;3.63;;
21326;SDS011;10822;51.532;6.770;2023-05-20T09:24:02;4.68;;;3.38;;
21326;SDS011;10822;51.532;6.770;2023-05-20T09:26:28;5.20;;;3.70;;
21326;SDS011;10822;51.532;6.770;2023-05-20T09:28:58;5.45;;;4.35;;
21326;SDS011;10822;51.532;6.770;2023-05-20T09:31:25;5.82;;;3.95;;
21326;SDS011;10822;51.532;6.770;2023-05-20T09:33:52;5.63;;;4.00;;
21326;SDS011;10822;51.532;6.770;2023-05-20T09:36:18;6.22;;;4.10;;
21326;SDS011;10822;51.532;6.770;2023-05-20T09:38:45;5.35;;;3.67;;
21326;SDS011;10822;51.532;6.770;2023-05-20T09:41:12;6.30;;;4.15;;
21326;SDS011;10822;51.532;6.770;2023-05-20T09:43:39;7.32;;;3.35;;
21326;SDS011;10822;51.532;6.770;2023-05-20T09:46:06;6.10;;;3.65;;
21326;SDS011;10822;51.532;6.770;2023-05-20T09:48:34;5.07;;;3.83;;
21326;SDS011;10822;51.532;6.770;2023-05-20T09:51:01;8.73;;;3.65;;
21326;SDS011;10822;51.532;6.770;2023-05-20T09:53:28;5.72;;;3.92;;
21326;SDS011;10822;51.532;6.770;2023-05-20T09:55:56;7.07;;;3.80;;
21326;SDS011;10822;51.532;6.770;2023-05-20T09:58:22;4.47;;;3.60;;
21326;SDS011;10822;51.532;6.770;2023-05-20T10:00:49;5.22;;;3.88;;
21326;SDS011;10822;51.532;6.770;2023-05-20T10:03:17;4.10;;;3.33;;
21326;SDS011;10822;51.532;6.770;2023-05-20T10:05:47;5.43;;;3.70;;
21326;SDS011;10822;51.532;6.770;2023-05-20T10:08:37;6.97;;;3.88;;
21326;SDS011;10822;51.532;6.770;2023-05-20T10:21:40;5.25;;;3.70;;
21326;SDS011;10822;51.532;6.770;2023-05-20T10:24:06;5.22;;;3.95;;
21326;SDS011;10822;51.532;6.770;2023-05-20T10:26:40;4.63;;;3.40;;
21326;SDS011;10822;51.532;6.770;2023-05-20T10:29:15;4.70;;;3.60;;
21326;SDS011;10822;51.532;6.770;2023-05-20T10:31:49;5.05;;;3.40;;
21326;SDS011;10822;51.532;6.770;2023-05-20T10:34:16;5.30;;;3.58;;
21326;SDS011;10822;51.532;6.770;2023-05-20T10:37:01;6.63;;;3.13;;
21326;SDS011;10822;51.532;6.770;2023-05-20T10:39:28;4.32;;;3.10;;
21326;SDS011;10822;51.532;6.770;2023-05-20T10:42:07;5.05;;;3.38;;
21326;SDS011;10822;51.532;6.770;2023-05-20T10:44:43;5.60;;;3.05;;
21326;SDS011;10822;51.532;6.770;2023-05-20T10:47:09;6.18;;;3.42;;
21326;SDS011;10822;51.532;6.770;2023-05-20T10:49:38;6.63;;;3.30;;
21326;SDS011;10822;51.532;6.770;2023-05-20T10:52:06;4.47;;;3.35;;
21326;SDS011;10822;51.532;6.770;2023-05-20T10:54:34;3.90;;;2.92;;
21326;SDS011;10822;51.532;6.770;2023-05-20T10:57:00;7.10;;;3.58;;
21326;SDS011;10822;51.532;6.770;2023-05-20T10:59:31;4.85;;;3.20;;
21326;SDS011;10822;51.532;6.770;2023-05-20T11:01:58;4.60;;;3.30;;
21326;SDS011;10822;51.532;6.770;2023-05-20T11:04:24;4.95;;;3.13;;
21326;SDS011;10822;51.532;6.770;2023-05-20T11:06:51;4.10;;;2.88;;
21326;SDS011;10822;51.532;6.770;2023-05-20T11:09:17;3.58;;;2.70;;
21326;SDS011;10822;51.532;6.770;2023-05-20T11:11:44;4.25;;;2.90;;
21326;SDS011;10822;51.532;6.770;2023-05-20T11:14:10;4.22;;;3.13;;
21326;SDS011;10822;51.532;6.770;2023-05-20T11:16:40;4.10;;;2.97;;
21326;SDS011;10822;51.532;6.770;2023-05-20T11:19:07;4.05;;;3.08;;
21326;SDS011;10822;51.532;6.770;2023-05-20T11:21:33;4.53;;;2.53;;
21326;SDS011;10822;51.532;6.770;2023-05-20T11:23:59;4.53;;;2.88;;
21326;SDS011;10822;51.532;6.770;2023-05-20T11:26:25;5.80;;;3.35;;
21326;SDS011;10822;51.532;6.770;2023-05-20T11:28:51;5.05;;;3.03;;
21326;SDS011;10822;51.532;6.770;2023-05-20T11:31:17;4.10;;;3.30;;
21326;SDS011;10822;51.532;6.770;2023-05-20T11:33:43;4.45;;;2.90;;
21326;SDS011;10822;51.532;6.770;2023-05-20T11:36:11;4.05;;;2.78;;
21326;SDS011;10822;51.532;6.770;2023-05-20T11:38:39;5.93;;;3.28;;
21326;SDS011;10822;51.532;6.770;2023-05-20T11:41:05;3.70;;;2.75;;
21326;SDS011;10822;51.532;6.770;2023-05-20T11:43:32;3.83;;;2.95;;
21326;SDS011;10822;51.532;6.770;2023-05-20T11:45:58;5.25;;;3.47;;
21326;SDS011;10822;51.532;6.770;2023-05-20T11:48:24;3.92;;;3.45;;
21326;SDS011;10822;51.532;6.770;2023-05-20T11:50:52;5.97;;;3.47;;
21326;SDS011;10822;51.532;6.770;2023-05-20T11:53:18;4.22;;;3.22;;
21326;SDS011;10822;51.532;6.770;2023-05-20T11:55:46;4.53;;;3.10;;
21326;SDS011;10822;51.532;6.770;2023-05-20T11:58:17;3.63;;;2.85;;
21326;SDS011;10822;51.532;6.770;2023-05-20T12:00:43;4.50;;;3.38;;
21326;SDS011;10822;51.532;6.770;2023-05-20T12:03:09;3.53;;;2.70;;
21326;SDS011;10822;51.532;6.770;2023-05-20T12:05:35;6.93;;;3.00;;
21326;SDS011;10822;51.532;6.770;2023-05-20T12:08:01;4.80;;;2.78;;
21326;SDS011;10822;51.532;6.770;2023-05-20T12:10:28;10.57;;;7.00;;
21326;SDS011;10822;51.532;6.770;2023-05-20T12:12:54;4.50;;;2.95;;
21326;SDS011;10822;51.532;6.770;2023-05-20T12:15:20;4.22;;;2.80;;
21326;SDS011;10822;51.532;6.770;2023-05-20T12:17:46;3.53;;;2.92;;
21326;SDS011;10822;51.532;6.770;2023-05-20T12:20:13;4.78;;;3.45;;
21326;SDS011;10822;51.532;6.770;2023-05-20T12:22:44;5.57;;;3.30;;
21326;SDS011;10822;51.532;6.770;2023-05-20T12:25:11;4.85;;;3.00;;
21326;SDS011;10822;51.532;6.770;2023-05-20T12:27:37;3.88;;;3.03;;
21326;SDS011;10822;51.532;6.770;2023-05-20T12:30:04;4.68;;;3.03;;
21326;SDS011;10822;51.532;6.770;2023-05-20T12:32:30;3.22;;;2.80;;
21326;SDS011;10822;51.532;6.770;2023-05-20T12:34:56;3.95;;;2.60;;
21326;SDS011;10822;51.532;6.770;2023-05-20T12:37:22;4.43;;;2.75;;
21326;SDS011;10822;51.532;6.770;2023-05-20T12:39:48;4.10;;;2.50;;
21326;SDS011;10822;51.532;6.770;2023-05-20T12:42:14;2.92;;;2.30;;
21326;SDS011;10822;51.532;6.770;2023-05-20T12:44:40;4.25;;;2.50;;
21326;SDS011;10822;51.532;6.770;2023-05-20T12:47:07;3.17;;;2.20;;
21326;SDS011;10822;51.532;6.770;2023-05-20T12:49:33;3.65;;;2.25;;
21326;SDS011;10822;51.532;6.770;2023-05-20T12:51:59;3.50;;;2.33;;
21326;SDS011;10822;51.532;6.770;2023-05-20T12:54:25;2.92;;;2.30;;
21326;SDS011;10822;51.532;6.770;2023-05-20T12:56:52;3.67;;;2.30;;
21326;SDS011;10822;51.532;6.770;2023-05-20T12:59:19;3.72;;;2.15;;
21326;SDS011;10822;51.532;6.770;2023-05-20T13:01:45;2.53;;;1.98;;
21326;SDS011;10822;51.532;6.770;2023-05-20T13:04:11;2.85;;;2.08;;
21326;SDS011;10822;51.532;6.770;2023-05-20T13:06:37;3.10;;;2.17;;
21326;SDS011;10822;51.532;6.770;2023-05-20T13:09:03;2.88;;;2.17;;
21326;SDS011;10822;51.532;6.770;2023-05-20T13:11:29;2.70;;;2.10;;
21326;SDS011;10822;51.532;6.770;2023-05-20T13:13:55;2.85;;;2.20;;
21326;SDS011;10822;51.532;6.770;2023-05-20T13:16:21;2.78;;;1.90;;
21326;SDS011;10822;51.532;6.770;2023-05-20T13:18:47;4.22;;;2.17;;
21326;SDS011;10822;51.532;6.770;2023-05-20T13:21:13;3.17;;;2.50;;
21326;SDS011;10822;51.532;6.770;2023-05-20T13:23:40;2.97;;;2.35;;
21326;SDS011;10822;51.532;6.770;2023-05-20T13:26:06;2.13;;;1.92;;
21326;SDS011;10822;51.532;6.770;2023-05-20T13:28:33;4.05;;;2.45;;
21326;SDS011;10822;51.532;6.770;2023-05-20T13:31:00;3.20;;;2.42;;
21326;SDS011;10822;51.532;6.770;2023-05-20T13:33:28;3.20;;;2.22;;
21326;SDS011;10822;51.532;6.770;2023-05-20T13:35:54;4.18;;;1.70;;
21326;SDS011;10822;51.532;6.770;2023-05-20T13:38:20;3.13;;;1.70;;
21326;SDS011;10822;51.532;6.770;2023-05-20T13:40:46;4.47;;;1.80;;
21326;SDS011;10822;51.532;6.770;2023-05-20T13:43:13;5.43;;;2.30;;
21326;SDS011;10822;51.532;6.770;2023-05-20T13:45:41;3.40;;;2.25;;
21326;SDS011;10822;51.532;6.770;2023-05-20T13:48:07;4.32;;;2.47;;
21326;SDS011;10822;51.532;6.770;2023-05-20T13:50:33;2.63;;;2.00;;
21326;SDS011;10822;51.532;6.770;2023-05-20T13:52:59;3.53;;;2.15;;
21326;SDS011;10822;51.532;6.770;2023-05-20T13:55:25;2.33;;;1.92;;
21326;SDS011;10822;51.532;6.770;2023-05-20T13:57:51;3.25;;;1.60;;
21326;SDS011;10822;51.532;6.770;2023-05-20T14:00:18;3.00;;;1.50;;
21326;SDS011;10822;51.532;6.770;2023-05-20T14:02:44;3.08;;;1.90;;
21326;SDS011;10822;51.532;6.770;2023-05-20T14:05:11;3.35;;;1.67;;
21326;SDS011;10822;51.532;6.770;2023-05-20T14:07:37;2.40;;;1.90;;
21326;SDS011;10822;51.532;6.770;2023-05-20T14:10:04;4.22;;;1.75;;
21326;SDS011;10822;51.532;6.770;2023-05-20T14:12:30;2.13;;;1.42;;
21326;SDS011;10822;51.532;6.770;2023-05-20T14:14:57;2.00;;;1.50;;
21326;SDS011;10822;51.532;6.770;2023-05-20T14:17:23;2.13;;;1.80;;
21326;SDS011;10822;51.532;6.770;2023-05-20T14:19:49;1.90;;;1.50;;
21326;SDS011;10822;51.532;6.770;2023-05-20T14:22:15;1.60;;;1.50;;
21326;SDS011;10822;51.532;6.770;2023-05-20T14:24:42;1.33;;;1.23;;
21326;SDS011;10822;51.532;6.770;2023-05-20T14:27:08;2.65;;;1.58;;
21326;SDS011;10822;51.532;6.770;2023-05-20T14:29:35;1.55;;;1.45;;
21326;SDS011;10822;51.532;6.770;2023-05-20T14:32:01;1.52;;;1.42;;
21326;SDS011;10822;51.532;6.770;2023-05-20T14:34:28;1.98;;;1.60;;
21326;SDS011;10822;51.532;6.770;2023-05-20T14:36:54;1.45;;;1.30;;
21326;SDS011;10822;51.532;6.770;2023-05-20T14:39:21;1.95;;;1.58;;
21326;SDS011;10822;51.532;6.770;2023-05-20T14:41:47;1.50;;;1.40;;
21326;SDS011;10822;51.532;6.770;2023-05-20T14:44:13;4.15;;;1.80;;
21326;SDS011;10822;51.532;6.770;2023-05-20T14:46:38;1.92;;;1.60;;
21326;SDS011;10822;51.532;6.770;2023-05-20T14:49:04;2.15;;;1.70;;
21326;SDS011;10822;51.532;6.770;2023-05-20T14:51:30;5.03;;;1.60;;
21326;SDS011;10822;51.532;6.770;2023-05-20T14:53:57;1.77;;;1.40;;
21326;SDS011;10822;51.532;6.770;2023-05-20T14:56:23;2.15;;;1.50;;
21326;SDS011;10822;51.532;6.770;2023-05-20T14:58:48;2.30;;;1.73;;
21326;SDS011;10822;51.532;6.770;2023-05-20T15:01:14;1.70;;;1.45;;
21326;SDS011;10822;51.532;6.770;2023-05-20T15:03:41;3.08;;;1.70;;